Saltar para o conteúdo principal

S. Miguel, Nordeste

ID 1210932 · 37.8326, -25.1501 mapa

Última leitura · 2026-05-09 18:00 (Europe/Lisbon)

Temperatura
14.0 °C
Humidade
77 %
Pressão
Precipitação
0.0 mm
Radiação
Velocidade do vento
19.8 km/h
Direcção do vento
N · Norte

Histórico de 24 horas

Hora (Europe/Lisbon) Temperatura Humidade Pressão Chuva Vento Direcção
2026-05-09 18:00 14.0 °C 77 % 0.0 mm 19.8 km/h N
2026-05-09 17:00 14.5 °C 83 % 0.4 mm 18.7 km/h N
2026-05-09 16:00 13.1 °C 90 % 3.4 mm 21.6 km/h NW
2026-05-09 15:00 10.2 °C 95 % 7.4 mm 14.8 km/h NW
2026-05-09 14:00 11.8 °C 86 % 3.1 mm 24.5 km/h NW
2026-05-09 13:00 14.6 °C 62 % 0.0 mm 22.7 km/h NW
2026-05-09 12:00 14.0 °C 60 % 0.0 mm 24.1 km/h NW
2026-05-09 11:00 13.1 °C 60 % 0.0 mm 28.8 km/h NW
2026-05-09 10:00 11.7 °C 74 % 0.9 mm 25.9 km/h NW
2026-05-09 09:00 11.9 °C 70 % 0.1 mm 22.7 km/h N
2026-05-09 08:00 11.3 °C 73 % 0.0 mm 22.7 km/h NW
2026-05-09 07:00 11.6 °C 70 % 0.0 mm 26.3 km/h N
2026-05-09 06:00 11.0 °C 81 % 0.6 mm 20.9 km/h N
2026-05-09 05:00 12.0 °C 74 % 0.0 mm 24.1 km/h N
2026-05-09 04:00 12.1 °C 72 % 0.0 mm 22.7 km/h NW
2026-05-09 03:00 12.2 °C 69 % 0.0 mm 23.8 km/h N
2026-05-09 02:00 12.4 °C 79 % 0.0 mm 27.7 km/h N
2026-05-09 01:00 12.1 °C 89 % 0.3 mm 21.6 km/h NW
2026-05-09 00:00 12.5 °C 88 % 0.0 mm 23.4 km/h NW
2026-05-08 23:00 12.3 °C 92 % 3.7 mm 20.5 km/h NW
2026-05-08 22:00 13.4 °C 86 % 0.0 mm 24.8 km/h NW
2026-05-08 21:00 13.2 °C 89 % 1.3 mm 22.0 km/h NW
2026-05-08 20:00 14.3 °C 81 % 0.1 mm 23.0 km/h NW
2026-05-08 19:00 15.0 °C 79 % 0.0 mm 26.3 km/h NW